createdAt,value
2018-01-14T00:01:15.564Z,89.56
2018-01-14T00:03:43.127Z,88.89
2018-01-14T00:06:10.782Z,89.62
2018-01-14T00:08:38.312Z,89.10
2018-01-14T00:11:06.198Z,88.91
2018-01-14T00:13:33.724Z,89.48
2018-01-14T00:16:01.281Z,89.61
2018-01-14T00:18:28.831Z,88.41
2018-01-14T00:20:56.378Z,88.68
2018-01-14T00:23:23.993Z,88.80
2018-01-14T00:25:51.594Z,88.58
2018-01-14T00:28:19.125Z,88.11
2018-01-14T00:30:46.659Z,89.31
2018-01-14T00:33:14.377Z,88.35
2018-01-14T00:35:41.956Z,88.34
2018-01-14T00:38:09.504Z,88.34
2018-01-14T00:40:37.073Z,88.86
2018-01-14T00:43:04.592Z,88.50
2018-01-14T00:45:32.521Z,88.43
2018-01-14T00:48:00.045Z,87.87
2018-01-14T00:50:27.593Z,87.61
2018-01-14T00:52:55.205Z,87.94
2018-01-14T00:55:22.757Z,88.11
2018-01-14T00:57:50.276Z,88.79
2018-01-14T01:00:18.186Z,87.88
2018-01-14T01:02:45.742Z,88.07
2018-01-14T01:05:13.255Z,88.51
2018-01-14T01:07:40.800Z,87.52
2018-01-14T01:10:08.350Z,88.31
2018-01-14T01:12:35.892Z,88.11
2018-01-14T01:15:03.441Z,87.69
2018-01-14T01:19:57.842Z,87.98
2018-01-14T01:22:25.373Z,88.54
2018-01-14T01:24:52.961Z,88.35
2018-01-14T01:27:20.517Z,88.16
2018-01-14T01:29:48.036Z,88.00
2018-01-14T01:32:15.576Z,88.04
2018-01-14T01:34:43.180Z,87.74
2018-01-14T01:37:10.712Z,88.08
2018-01-14T01:39:38.228Z,87.70
2018-01-14T01:42:05.827Z,87.70
2018-01-14T01:44:33.357Z,87.59
2018-01-14T01:47:00.895Z,87.74
2018-01-14T01:49:28.407Z,87.82
2018-01-14T01:51:56.031Z,88.16
2018-01-14T01:54:23.557Z,87.50
2018-01-14T01:56:51.103Z,87.97
2018-01-14T01:59:18.644Z,87.74
2018-01-14T02:01:46.221Z,87.72
2018-01-14T02:04:13.736Z,87.88
2018-01-14T02:06:41.262Z,88.17
2018-01-14T02:09:08.833Z,87.66
2018-01-14T02:11:36.483Z,87.39
2018-01-14T02:14:04.487Z,87.70
2018-01-14T02:16:32.034Z,88.37
2018-01-14T02:18:59.556Z,87.15
2018-01-14T02:21:27.132Z,87.98
2018-01-14T02:23:54.648Z,87.94
2018-01-14T02:26:22.179Z,87.34
2018-01-14T02:28:49.757Z,87.35
2018-01-14T02:31:17.396Z,87.58
2018-01-14T02:33:44.934Z,88.42
2018-01-14T02:36:12.548Z,88.04
2018-01-14T02:38:40.149Z,87.97
2018-01-14T02:41:07.659Z,87.42
2018-01-14T02:43:35.185Z,88.30
2018-01-14T02:46:02.762Z,87.49
2018-01-14T02:48:30.308Z,87.97
2018-01-14T02:50:57.935Z,87.14
2018-01-14T02:53:25.493Z,87.37
2018-01-14T02:55:53.036Z,87.21
2018-01-14T02:58:20.818Z,88.08
2018-01-14T03:00:48.361Z,88.23
2018-01-14T03:03:16.126Z,87.02
2018-01-14T03:05:43.648Z,87.74
2018-01-14T03:08:11.198Z,87.29
2018-01-14T03:10:38.816Z,87.66
2018-01-14T03:13:06.378Z,87.01
2018-01-14T03:15:33.931Z,86.98
2018-01-14T03:18:01.508Z,87.46
2018-01-14T03:20:29.023Z,87.37
2018-01-14T03:22:56.636Z,87.67
2018-01-14T03:25:24.156Z,87.87
2018-01-14T03:27:51.700Z,87.76
2018-01-14T03:30:19.269Z,87.76
2018-01-14T03:32:46.873Z,87.95
2018-01-14T03:35:14.448Z,88.69
2018-01-14T03:37:42.136Z,88.55
2018-01-14T03:40:10.136Z,88.25
2018-01-14T03:42:37.695Z,88.39
2018-01-14T03:45:05.266Z,87.99
2018-01-14T03:47:32.856Z,88.07
2018-01-14T03:50:00.433Z,88.33
2018-01-14T03:52:27.957Z,88.30
2018-01-14T03:54:55.899Z,88.85
2018-01-14T03:57:23.429Z,88.53
2018-01-14T03:59:50.972Z,88.61
2018-01-14T04:02:18.543Z,89.14
2018-01-14T04:04:46.105Z,88.47
2018-01-14T04:07:14.025Z,88.41
2018-01-14T04:09:41.600Z,88.36
2018-01-14T04:12:09.166Z,88.56
2018-01-14T04:14:36.740Z,88.80
2018-01-14T04:17:04.292Z,88.28
2018-01-14T04:19:31.902Z,88.92
2018-01-14T04:21:59.524Z,88.76
2018-01-14T04:24:27.069Z,88.82
2018-01-14T04:26:54.633Z,88.75
2018-01-14T04:29:22.581Z,88.81
2018-01-14T04:31:50.196Z,89.28
2018-01-14T04:34:17.753Z,90.45
2018-01-14T04:36:45.314Z,88.89
2018-01-14T04:39:12.893Z,89.26
2018-01-14T04:41:40.506Z,87.92
2018-01-14T04:44:08.439Z,88.17
2018-01-14T04:46:35.970Z,88.28
2018-01-14T04:49:03.536Z,88.65
2018-01-14T04:51:31.109Z,88.78
2018-01-14T04:53:58.701Z,89.73
2018-01-14T04:56:26.289Z,89.50
2018-01-14T04:58:54.031Z,89.24
2018-01-14T05:01:21.557Z,88.44
2018-01-14T05:03:49.085Z,88.15
2018-01-14T05:06:16.831Z,88.65
2018-01-14T05:08:44.372Z,87.67
2018-01-14T05:11:11.887Z,88.34
2018-01-14T05:13:39.485Z,88.30
2018-01-14T05:16:07.043Z,89.14
2018-01-14T05:18:34.608Z,88.58
2018-01-14T05:21:02.379Z,88.52
2018-01-14T05:23:29.907Z,87.68
2018-01-14T05:25:57.648Z,87.85
2018-01-14T05:28:25.186Z,88.29
2018-01-14T05:30:52.695Z,87.90
2018-01-14T05:33:20.233Z,88.65
2018-01-14T05:35:47.825Z,88.90
2018-01-14T05:38:15.367Z,88.08
2018-01-14T05:40:43.075Z,87.35
2018-01-14T05:43:10.627Z,87.99
2018-01-14T05:45:38.197Z,87.67
2018-01-14T05:48:05.753Z,87.70
2018-01-14T05:50:33.315Z,88.52
2018-01-14T05:53:00.869Z,88.19
2018-01-14T05:55:28.408Z,87.71
2018-01-14T05:57:55.945Z,87.04
2018-01-14T06:00:23.511Z,88.17
2018-01-14T06:02:51.044Z,87.59
2018-01-14T06:05:18.928Z,86.11
2018-01-14T06:07:46.791Z,87.11
2018-01-14T06:10:14.302Z,87.54
2018-01-14T06:12:41.855Z,87.59
2018-01-14T06:15:09.392Z,86.26
2018-01-14T06:17:36.974Z,87.33
2018-01-14T06:20:04.606Z,87.06
2018-01-14T06:22:32.124Z,87.42
2018-01-14T06:24:59.660Z,86.85
2018-01-14T06:27:27.208Z,87.33
2018-01-14T06:29:54.838Z,86.19
2018-01-14T06:32:22.444Z,85.67
2018-01-14T06:34:50.031Z,86.66
2018-01-14T06:37:17.585Z,85.72
2018-01-14T06:39:45.129Z,86.35
2018-01-14T06:42:12.668Z,87.05
2018-01-14T06:44:40.238Z,86.57
2018-01-14T06:47:07.765Z,85.99
2018-01-14T06:49:35.333Z,86.58
2018-01-14T06:52:02.890Z,87.16
2018-01-14T06:54:30.820Z,85.56
2018-01-14T06:56:58.455Z,86.27
2018-01-14T06:59:25.976Z,85.32
2018-01-14T07:01:53.515Z,86.37
2018-01-14T07:04:21.086Z,85.85
2018-01-14T07:06:48.633Z,86.11
2018-01-14T07:09:16.185Z,85.28
2018-01-14T07:11:43.697Z,86.37
2018-01-14T07:14:11.339Z,84.90
2018-01-14T07:16:38.876Z,85.33
2018-01-14T07:19:06.445Z,84.78
2018-01-14T07:21:34.044Z,85.63
2018-01-14T07:24:01.630Z,86.23
2018-01-14T07:26:29.142Z,85.41
2018-01-14T07:28:57.074Z,85.18
2018-01-14T07:31:24.619Z,85.12
2018-01-14T07:33:52.135Z,85.69
2018-01-14T07:36:19.709Z,84.38
2018-01-14T07:38:47.249Z,84.41
2018-01-14T07:41:14.787Z,85.08
2018-01-14T07:43:42.324Z,84.70
2018-01-14T07:46:09.926Z,85.09
2018-01-14T07:48:37.453Z,83.70
2018-01-14T07:51:05.037Z,84.45
2018-01-14T07:53:32.553Z,84.25
2018-01-14T07:56:00.120Z,83.75
2018-01-14T07:58:27.712Z,83.71
2018-01-14T08:00:55.251Z,83.28
2018-01-14T08:03:22.779Z,82.90
2018-01-14T08:05:50.320Z,84.08
2018-01-14T08:08:17.884Z,84.48
2018-01-14T08:10:45.394Z,82.60
2018-01-14T08:13:12.969Z,83.89
2018-01-14T08:15:40.664Z,82.89
2018-01-14T08:18:08.258Z,83.23
2018-01-14T08:20:35.813Z,83.75
2018-01-14T08:23:03.372Z,83.43
2018-01-14T08:25:30.935Z,84.14
2018-01-14T08:27:58.547Z,83.97
2018-01-14T08:30:26.090Z,83.78
2018-01-14T08:32:53.641Z,82.41
2018-01-14T08:35:21.236Z,82.19
2018-01-14T08:37:49.052Z,83.84
2018-01-14T08:40:16.572Z,83.20
2018-01-14T08:42:44.148Z,81.55
2018-01-14T08:45:11.664Z,82.13
2018-01-14T08:47:39.487Z,81.32
2018-01-14T08:50:07.040Z,82.34
2018-01-14T08:52:34.585Z,81.87
2018-01-14T08:55:02.242Z,82.11
2018-01-14T08:57:29.936Z,81.99
2018-01-14T08:59:57.480Z,82.02
2018-01-14T09:02:25.099Z,83.67
2018-01-14T09:04:52.649Z,80.49
2018-01-14T09:07:20.167Z,81.17
2018-01-14T09:09:47.776Z,81.86
2018-01-14T09:12:15.317Z,81.36
2018-01-14T09:14:42.863Z,82.44
2018-01-14T09:17:10.822Z,83.08
2018-01-14T09:19:38.366Z,83.28
2018-01-14T09:22:05.896Z,80.84
2018-01-14T09:24:33.480Z,80.39
2018-01-14T09:27:01.008Z,80.89
2018-01-14T09:29:28.572Z,82.23
2018-01-14T09:31:56.146Z,81.71
2018-01-14T09:34:23.731Z,81.61
2018-01-14T09:36:51.410Z,80.95
2018-01-14T09:39:18.981Z,80.60
2018-01-14T09:41:46.535Z,80.69
2018-01-14T09:44:14.047Z,81.74
2018-01-14T09:46:41.587Z,83.32
2018-01-14T09:49:09.286Z,82.91
2018-01-14T09:51:37.062Z,82.46
2018-01-14T09:54:05.562Z,82.27
2018-01-14T09:56:33.145Z,81.95
2018-01-14T09:59:00.716Z,82.80
2018-01-14T10:01:28.293Z,82.62
2018-01-14T10:03:57.087Z,81.53
2018-01-14T10:06:24.664Z,82.98
2018-01-14T10:08:52.232Z,81.77
2018-01-14T10:11:19.772Z,82.14
2018-01-14T10:13:47.353Z,80.18
2018-01-14T10:16:14.882Z,81.71
2018-01-14T10:18:42.395Z,81.40
2018-01-14T10:21:09.959Z,82.35
2018-01-14T10:23:37.509Z,80.63
2018-01-14T10:26:05.467Z,81.42
2018-01-14T10:28:32.992Z,81.15
2018-01-14T10:31:00.572Z,79.72
2018-01-14T10:33:28.177Z,80.07
2018-01-14T10:35:55.776Z,80.11
2018-01-14T10:38:23.292Z,79.32
2018-01-14T10:40:51.718Z,80.55
2018-01-14T10:43:19.318Z,78.84
2018-01-14T10:45:46.843Z,78.85
2018-01-14T10:48:14.385Z,79.29
2018-01-14T10:50:41.906Z,79.12
2018-01-14T10:53:09.464Z,80.41
2018-01-14T10:55:36.999Z,79.23
2018-01-14T10:58:04.609Z,78.83
2018-01-14T11:00:37.732Z,80.47
2018-01-14T11:03:05.615Z,78.82
2018-01-14T11:05:33.156Z,79.31
2018-01-14T11:08:00.704Z,79.11
2018-01-14T11:10:28.402Z,80.37
2018-01-14T11:12:55.972Z,78.07
2018-01-14T11:15:23.506Z,77.69
2018-01-14T11:17:51.034Z,78.74
2018-01-14T11:20:18.601Z,79.82
2018-01-14T11:22:46.154Z,79.27
2018-01-14T11:25:13.732Z,77.04
2018-01-14T11:27:41.301Z,78.72
2018-01-14T11:30:08.987Z,77.64
2018-01-14T11:32:36.530Z,77.56
2018-01-14T11:35:04.080Z,77.94
2018-01-14T11:37:31.657Z,78.03
2018-01-14T11:39:59.229Z,78.68
2018-01-14T11:42:26.744Z,79.90
2018-01-14T11:44:54.296Z,78.36
2018-01-14T11:47:21.870Z,78.78
2018-01-14T11:49:49.470Z,77.48
2018-01-14T11:52:17.007Z,79.69
2018-01-14T11:54:44.612Z,78.94
2018-01-14T11:57:12.186Z,79.06
2018-01-14T11:59:39.872Z,79.10
2018-01-14T12:02:07.480Z,78.81
2018-01-14T12:04:35.009Z,78.88
2018-01-14T12:07:02.796Z,78.71
2018-01-14T12:09:30.376Z,78.43
2018-01-14T12:11:58.033Z,78.49
2018-01-14T12:14:25.580Z,77.49
2018-01-14T12:16:53.106Z,78.74
2018-01-14T12:19:20.681Z,77.18
2018-01-14T12:21:48.336Z,78.22
2018-01-14T12:24:15.893Z,77.98
2018-01-14T12:26:43.435Z,78.52
2018-01-14T12:29:10.979Z,77.89
2018-01-14T12:31:38.528Z,76.37
2018-01-14T12:37:17.756Z,78.45
2018-01-14T12:39:45.376Z,78.90
2018-01-14T12:42:12.938Z,77.83
2018-01-14T12:44:40.467Z,78.02
2018-01-14T12:47:08.067Z,78.53
2018-01-14T12:49:35.579Z,78.66
2018-01-14T12:52:03.129Z,78.29
2018-01-14T12:54:30.696Z,77.25
2018-01-14T12:56:58.301Z,76.69
2018-01-14T12:59:25.839Z,78.08
2018-01-14T13:01:53.594Z,77.38
2018-01-14T13:04:21.118Z,78.01
2018-01-14T13:06:48.676Z,78.03
2018-01-14T13:09:16.195Z,77.87
2018-01-14T13:11:43.764Z,77.86
2018-01-14T13:14:11.303Z,77.31
2018-01-14T13:16:38.922Z,77.93
2018-01-14T13:19:06.467Z,77.85
2018-01-14T13:21:33.991Z,76.49
2018-01-14T13:24:01.566Z,77.88
2018-01-14T13:26:29.092Z,77.28
2018-01-14T13:28:56.691Z,78.15
2018-01-14T13:31:24.232Z,77.36
2018-01-14T13:33:51.780Z,77.74
2018-01-14T13:36:19.332Z,77.77
2018-01-14T13:38:47.027Z,78.27
2018-01-14T13:41:14.590Z,77.99
2018-01-14T13:43:42.113Z,77.60
2018-01-14T13:46:09.687Z,78.04
2018-01-14T13:48:37.231Z,76.54
2018-01-14T13:51:04.890Z,76.64
2018-01-14T13:53:32.462Z,77.58
2018-01-14T13:55:59.990Z,78.22
2018-01-14T13:58:27.550Z,78.20
2018-01-14T14:00:55.106Z,77.88
2018-01-14T14:03:22.663Z,77.78
2018-01-14T14:05:50.267Z,77.66
2018-01-14T14:08:17.827Z,77.67
2018-01-14T14:10:45.438Z,77.88
2018-01-14T14:13:13.667Z,77.31
2018-01-14T14:15:41.339Z,77.78
2018-01-14T14:18:08.898Z,77.95
2018-01-14T14:20:36.441Z,77.94
2018-01-14T14:23:04.006Z,78.02
2018-01-14T14:25:31.527Z,78.50
2018-01-14T14:27:59.120Z,77.77
2018-01-14T14:30:26.778Z,77.54
2018-01-14T14:32:54.324Z,76.59
2018-01-14T14:35:21.870Z,77.73
2018-01-14T14:37:49.612Z,78.24
2018-01-14T14:40:17.183Z,77.19
2018-01-14T14:42:44.704Z,76.67
2018-01-14T14:45:12.450Z,77.12
2018-01-14T14:47:40.180Z,78.56
2018-01-14T14:50:07.888Z,78.59
2018-01-14T14:52:35.536Z,78.53
2018-01-14T14:55:03.093Z,78.67
2018-01-14T14:57:30.668Z,78.47
2018-01-14T14:59:58.236Z,79.00
2018-01-14T15:02:25.779Z,79.58
2018-01-14T15:04:53.300Z,80.03
2018-01-14T15:07:20.884Z,79.79
2018-01-14T15:09:48.469Z,79.86
2018-01-14T15:12:16.131Z,80.15
2018-01-14T15:14:43.830Z,80.79
2018-01-14T15:17:11.397Z,81.62
2018-01-14T15:19:39.580Z,81.89
2018-01-14T15:22:07.135Z,82.36
2018-01-14T15:24:34.869Z,82.96
2018-01-14T15:27:02.704Z,82.58
2018-01-14T15:29:30.219Z,82.95
2018-01-14T15:31:57.778Z,82.29
2018-01-14T15:34:25.317Z,82.44
2018-01-14T15:36:52.963Z,82.45
2018-01-14T15:39:20.592Z,82.81
2018-01-14T15:41:48.126Z,83.52
2018-01-14T15:44:15.642Z,83.71
2018-01-14T15:46:43.242Z,84.43
2018-01-14T15:49:11.215Z,83.61
2018-01-14T15:51:38.858Z,83.09
2018-01-14T15:54:06.376Z,83.37
2018-01-14T15:56:33.983Z,84.04
2018-01-14T15:59:01.664Z,84.02
2018-01-14T16:01:29.329Z,83.83
2018-01-14T16:03:56.879Z,84.32
2018-01-14T16:06:24.416Z,84.65
2018-01-14T16:08:52.173Z,85.55
2018-01-14T16:11:19.747Z,85.52
2018-01-14T16:13:47.293Z,84.94
2018-01-14T16:16:14.819Z,86.07
2018-01-14T16:18:42.387Z,85.69
2018-01-14T16:21:09.933Z,85.61
2018-01-14T16:23:37.862Z,86.59
2018-01-14T16:26:05.475Z,86.20
2018-01-14T16:28:33.016Z,86.74
2018-01-14T16:31:00.623Z,87.95
2018-01-14T16:33:28.192Z,87.66
2018-01-14T16:35:55.862Z,86.36
2018-01-14T16:38:23.411Z,85.85
2018-01-14T16:40:51.004Z,84.81
2018-01-14T16:43:18.553Z,86.50
2018-01-14T16:45:46.132Z,86.68
2018-01-14T16:48:13.671Z,87.35
2018-01-14T16:50:41.514Z,88.09
2018-01-14T16:53:09.196Z,88.53
2018-01-14T16:55:36.788Z,88.13
2018-01-14T16:58:04.353Z,87.45
2018-01-14T17:00:31.905Z,87.66
2018-01-14T17:02:59.506Z,88.30
2018-01-14T17:05:27.108Z,88.51
2018-01-14T17:07:54.726Z,88.72
2018-01-14T17:10:22.252Z,88.68
2018-01-14T17:12:50.060Z,87.63
2018-01-14T17:15:17.637Z,87.42
2018-01-14T17:17:45.197Z,86.79
2018-01-14T17:20:12.763Z,86.46
2018-01-14T17:22:40.476Z,86.52
2018-01-14T17:25:08.044Z,86.72
2018-01-14T17:27:35.625Z,86.85
2018-01-14T17:30:03.163Z,87.46
2018-01-14T17:32:30.713Z,87.51
2018-01-14T17:34:58.267Z,87.38
2018-01-14T17:37:25.775Z,85.97
2018-01-14T17:39:53.335Z,86.23
2018-01-14T17:42:20.855Z,86.98
2018-01-14T17:44:48.495Z,88.02
2018-01-14T17:47:16.250Z,87.51
2018-01-14T17:49:43.827Z,86.37
2018-01-14T17:52:11.354Z,87.27
2018-01-14T17:54:39.316Z,87.15
2018-01-14T17:57:06.888Z,86.60
2018-01-14T17:59:34.460Z,86.86
2018-01-14T18:02:02.023Z,86.62
2018-01-14T18:04:29.579Z,86.85
2018-01-14T18:06:57.552Z,86.19
2018-01-14T18:09:25.073Z,85.96
2018-01-14T18:11:52.616Z,86.53
2018-01-14T18:14:20.423Z,86.17
2018-01-14T18:16:59.673Z,86.53
2018-01-14T18:19:27.191Z,87.34
2018-01-14T18:21:54.861Z,86.94
2018-01-14T18:24:22.395Z,87.24
2018-01-14T18:26:50.022Z,87.46
2018-01-14T18:29:17.542Z,86.83
2018-01-14T18:31:45.092Z,86.57
2018-01-14T18:34:12.712Z,86.20
2018-01-14T18:36:40.317Z,86.27
2018-01-14T18:39:07.892Z,86.26
2018-01-14T18:41:35.442Z,86.84
2018-01-14T18:44:02.994Z,86.88
2018-01-14T18:46:30.894Z,86.90
2018-01-14T18:48:58.526Z,86.59
2018-01-14T18:51:26.076Z,86.71
2018-01-14T18:53:53.665Z,86.77
2018-01-14T18:56:21.182Z,86.88
2018-01-14T18:58:49.060Z,85.75
2018-01-14T19:01:16.580Z,86.08
2018-01-14T19:03:45.079Z,86.31
2018-01-14T19:06:12.661Z,85.89
2018-01-14T19:08:40.217Z,86.30
2018-01-14T19:11:08.131Z,86.56
2018-01-14T19:13:35.644Z,86.48
2018-01-14T19:16:03.193Z,86.59
2018-01-14T19:18:30.780Z,86.21
2018-01-14T19:20:58.413Z,86.73
2018-01-14T19:23:25.957Z,87.17
2018-01-14T19:25:53.640Z,87.14
2018-01-14T19:28:21.208Z,87.15
2018-01-14T19:30:48.726Z,86.85
2018-01-14T19:33:16.274Z,86.77
2018-01-14T19:35:43.797Z,86.32
2018-01-14T19:38:11.358Z,86.27
2018-01-14T19:40:38.904Z,86.86
2018-01-14T19:43:06.449Z,86.87
2018-01-14T19:45:34.358Z,86.92
2018-01-14T19:48:02.094Z,87.31
2018-01-14T19:50:29.632Z,87.07
2018-01-14T19:52:57.198Z,87.14
2018-01-14T19:55:24.925Z,87.37
2018-01-14T19:57:52.725Z,87.12
2018-01-14T20:00:20.335Z,87.13
2018-01-14T20:02:48.419Z,87.82
2018-01-14T20:05:16.261Z,87.67
2018-01-14T20:07:44.148Z,87.98
2018-01-14T20:10:11.819Z,88.52
2018-01-14T20:12:39.557Z,88.58
2018-01-14T20:15:07.373Z,88.77
2018-01-14T20:17:35.067Z,89.36
2018-01-14T20:20:02.783Z,88.65
2018-01-14T20:22:30.381Z,89.07
2018-01-14T20:24:57.948Z,89.83
2018-01-14T20:27:25.591Z,90.48
2018-01-14T20:29:53.148Z,90.17
2018-01-14T20:32:20.790Z,90.79
2018-01-14T20:34:48.395Z,90.67
2018-01-14T20:37:15.939Z,89.87
2018-01-14T20:39:43.808Z,89.89
2018-01-14T20:42:11.503Z,90.63
2018-01-14T20:44:44.598Z,90.82
2018-01-14T20:47:12.181Z,91.01
2018-01-14T20:49:39.736Z,91.09
2018-01-14T20:52:07.255Z,91.41
2018-01-14T20:54:34.853Z,91.73
2018-01-14T20:57:02.421Z,91.43
2018-01-14T20:59:29.976Z,90.97
2018-01-14T21:01:57.514Z,90.90
2018-01-14T21:04:31.084Z,91.13
2018-01-14T21:06:58.697Z,90.93
2018-01-14T21:09:26.258Z,91.27
2018-01-14T21:11:53.861Z,91.13
2018-01-14T21:14:21.424Z,91.00
2018-01-14T21:16:48.944Z,91.03
2018-01-14T21:19:16.574Z,91.01
2018-01-14T21:21:44.194Z,90.82
2018-01-14T21:24:11.774Z,91.23
2018-01-14T21:26:39.355Z,90.67
2018-01-14T21:29:06.876Z,91.03
2018-01-14T21:31:34.462Z,91.71
2018-01-14T21:34:02.003Z,91.54
2018-01-14T21:36:29.585Z,91.55
2018-01-14T21:38:57.137Z,91.76
2018-01-14T21:41:24.723Z,91.81
2018-01-14T21:43:52.268Z,91.34
2018-01-14T21:46:19.844Z,91.86
2018-01-14T21:48:47.397Z,92.12
2018-01-14T21:51:14.923Z,91.82
2018-01-14T21:53:42.543Z,91.90
2018-01-14T21:56:10.110Z,91.84
2018-01-14T21:58:37.668Z,92.00
2018-01-14T22:01:05.244Z,92.05
2018-01-14T22:03:32.762Z,92.02
2018-01-14T22:06:00.299Z,91.89
2018-01-14T22:08:27.842Z,91.60
2018-01-14T22:10:55.392Z,92.45
2018-01-14T22:13:22.944Z,92.45
2018-01-14T22:15:50.860Z,92.47
2018-01-14T22:18:18.424Z,92.06
2018-01-14T22:20:45.950Z,92.24
2018-01-14T22:23:13.483Z,92.37
2018-01-14T22:25:41.027Z,92.65
2018-01-14T22:28:08.834Z,92.75
2018-01-14T22:30:36.556Z,92.74
2018-01-14T22:33:04.266Z,92.59
2018-01-14T22:35:31.797Z,92.92
2018-01-14T22:37:59.372Z,92.28
2018-01-14T22:40:26.955Z,92.46
2018-01-14T22:42:54.553Z,92.84
2018-01-14T22:45:22.105Z,92.45
2018-01-14T22:47:49.685Z,92.48
2018-01-14T22:50:17.217Z,92.80
2018-01-14T22:52:44.788Z,93.14
2018-01-14T22:55:12.328Z,93.19
2018-01-14T22:57:40.106Z,93.25
2018-01-14T23:00:07.724Z,93.58
2018-01-14T23:02:35.294Z,93.91
2018-01-14T23:05:02.835Z,94.25
2018-01-14T23:07:30.440Z,93.53
2018-01-14T23:09:57.998Z,93.73
2018-01-14T23:12:25.570Z,94.00
2018-01-14T23:14:58.903Z,94.60
2018-01-14T23:17:26.515Z,94.85
2018-01-14T23:19:54.061Z,94.62
2018-01-14T23:22:21.648Z,95.02
2018-01-14T23:24:49.276Z,94.78
2018-01-14T23:27:16.823Z,94.89
2018-01-14T23:29:44.495Z,94.72
2018-01-14T23:32:12.068Z,94.77
2018-01-14T23:34:39.620Z,94.37
2018-01-14T23:37:07.187Z,94.84
2018-01-14T23:39:34.739Z,94.95
2018-01-14T23:42:02.282Z,95.21
2018-01-14T23:44:29.865Z,94.86
2018-01-14T23:46:57.445Z,95.56
2018-01-14T23:49:25.080Z,95.28
2018-01-14T23:51:52.669Z,95.37
2018-01-14T23:54:20.268Z,94.91
2018-01-14T23:56:47.797Z,95.02
2018-01-14T23:59:15.346Z,94.93
